sensor_id;sensor_type;location;lat;lon;timestamp;P1;durP1;ratioP1;P2;durP2;ratioP2
65238;SDS011;51827;51.186;6.926;2023-03-31T00:00:29;2.20;;;1.20;;
65238;SDS011;51827;51.186;6.926;2023-03-31T00:01:30;1.40;;;1.00;;
65238;SDS011;51827;51.186;6.926;2023-03-31T00:02:30;2.38;;;1.02;;
65238;SDS011;51827;51.186;6.926;2023-03-31T00:03:30;1.93;;;1.10;;
65238;SDS011;51827;51.186;6.926;2023-03-31T00:04:31;3.10;;;1.30;;
65238;SDS011;51827;51.186;6.926;2023-03-31T00:05:32;1.50;;;0.90;;
65238;SDS011;51827;51.186;6.926;2023-03-31T00:06:36;1.98;;;1.00;;
65238;SDS011;51827;51.186;6.926;2023-03-31T00:08:37;2.60;;;1.30;;
65238;SDS011;51827;51.186;6.926;2023-03-31T00:09:37;2.97;;;1.00;;
65238;SDS011;51827;51.186;6.926;2023-03-31T00:10:37;2.23;;;1.10;;
65238;SDS011;51827;51.186;6.926;2023-03-31T00:11:44;2.17;;;1.00;;
65238;SDS011;51827;51.186;6.926;2023-03-31T00:12:44;3.15;;;1.20;;
65238;SDS011;51827;51.186;6.926;2023-03-31T00:13:45;1.55;;;1.00;;
65238;SDS011;51827;51.186;6.926;2023-03-31T00:14:46;2.10;;;1.10;;
65238;SDS011;51827;51.186;6.926;2023-03-31T00:15:46;2.65;;;1.35;;
65238;SDS011;51827;51.186;6.926;2023-03-31T00:16:46;1.80;;;1.00;;
65238;SDS011;51827;51.186;6.926;2023-03-31T00:17:47;2.10;;;0.93;;
65238;SDS011;51827;51.186;6.926;2023-03-31T00:18:47;2.17;;;0.97;;
65238;SDS011;51827;51.186;6.926;2023-03-31T00:19:47;2.65;;;1.20;;
65238;SDS011;51827;51.186;6.926;2023-03-31T00:20:48;2.30;;;1.10;;
65238;SDS011;51827;51.186;6.926;2023-03-31T00:21:48;3.97;;;1.20;;
65238;SDS011;51827;51.186;6.926;2023-03-31T00:22:49;2.13;;;1.10;;
65238;SDS011;51827;51.186;6.926;2023-03-31T00:23:50;2.17;;;1.10;;
65238;SDS011;51827;51.186;6.926;2023-03-31T00:24:52;3.47;;;1.27;;
65238;SDS011;51827;51.186;6.926;2023-03-31T00:25:53;3.47;;;1.10;;
65238;SDS011;51827;51.186;6.926;2023-03-31T00:26:54;2.97;;;1.30;;
65238;SDS011;51827;51.186;6.926;2023-03-31T00:27:54;2.03;;;1.00;;
65238;SDS011;51827;51.186;6.926;2023-03-31T00:28:54;4.53;;;1.20;;
65238;SDS011;51827;51.186;6.926;2023-03-31T00:29:55;1.55;;;0.90;;
65238;SDS011;51827;51.186;6.926;2023-03-31T00:30:58;3.17;;;1.13;;
65238;SDS011;51827;51.186;6.926;2023-03-31T00:31:59;2.83;;;1.45;;
65238;SDS011;51827;51.186;6.926;2023-03-31T00:32:59;2.50;;;1.13;;
65238;SDS011;51827;51.186;6.926;2023-03-31T00:34:00;3.00;;;0.93;;
65238;SDS011;51827;51.186;6.926;2023-03-31T00:35:01;2.42;;;1.30;;
65238;SDS011;51827;51.186;6.926;2023-03-31T00:36:01;1.77;;;1.23;;
65238;SDS011;51827;51.186;6.926;2023-03-31T00:37:02;2.47;;;1.03;;
65238;SDS011;51827;51.186;6.926;2023-03-31T00:39:04;2.33;;;0.93;;
65238;SDS011;51827;51.186;6.926;2023-03-31T00:40:05;2.83;;;1.10;;
65238;SDS011;51827;51.186;6.926;2023-03-31T00:41:06;1.60;;;1.00;;
65238;SDS011;51827;51.186;6.926;2023-03-31T00:42:06;2.97;;;1.03;;
65238;SDS011;51827;51.186;6.926;2023-03-31T00:43:09;2.47;;;1.10;;
65238;SDS011;51827;51.186;6.926;2023-03-31T00:44:40;4.45;;;1.10;;
65238;SDS011;51827;51.186;6.926;2023-03-31T00:47:24;1.50;;;0.90;;
65238;SDS011;51827;51.186;6.926;2023-03-31T00:48:26;2.13;;;0.95;;
65238;SDS011;51827;51.186;6.926;2023-03-31T00:49:34;2.22;;;1.02;;
65238;SDS011;51827;51.186;6.926;2023-03-31T00:50:48;4.40;;;1.20;;
65238;SDS011;51827;51.186;6.926;2023-03-31T00:51:53;2.33;;;1.00;;
65238;SDS011;51827;51.186;6.926;2023-03-31T00:53:04;3.00;;;1.27;;
65238;SDS011;51827;51.186;6.926;2023-03-31T00:54:08;4.75;;;1.00;;
65238;SDS011;51827;51.186;6.926;2023-03-31T00:55:11;3.13;;;1.13;;
65238;SDS011;51827;51.186;6.926;2023-03-31T00:56:15;2.00;;;0.90;;
65238;SDS011;51827;51.186;6.926;2023-03-31T00:57:16;2.05;;;1.15;;
65238;SDS011;51827;51.186;6.926;2023-03-31T00:58:16;1.73;;;0.90;;
65238;SDS011;51827;51.186;6.926;2023-03-31T00:59:19;2.95;;;1.30;;
65238;SDS011;51827;51.186;6.926;2023-03-31T01:00:22;2.17;;;1.05;;
65238;SDS011;51827;51.186;6.926;2023-03-31T01:01:22;3.08;;;1.17;;
65238;SDS011;51827;51.186;6.926;2023-03-31T01:02:23;2.90;;;1.15;;
65238;SDS011;51827;51.186;6.926;2023-03-31T01:03:24;2.70;;;1.27;;
65238;SDS011;51827;51.186;6.926;2023-03-31T01:04:24;2.08;;;1.10;;
65238;SDS011;51827;51.186;6.926;2023-03-31T01:05:26;4.45;;;1.23;;
65238;SDS011;51827;51.186;6.926;2023-03-31T01:06:28;2.35;;;1.00;;
65238;SDS011;51827;51.186;6.926;2023-03-31T01:08:36;3.08;;;1.23;;
65238;SDS011;51827;51.186;6.926;2023-03-31T01:09:37;3.08;;;1.08;;
65238;SDS011;51827;51.186;6.926;2023-03-31T01:10:39;2.80;;;1.10;;
65238;SDS011;51827;51.186;6.926;2023-03-31T01:11:43;2.30;;;1.00;;
65238;SDS011;51827;51.186;6.926;2023-03-31T01:12:46;2.90;;;1.23;;
65238;SDS011;51827;51.186;6.926;2023-03-31T01:13:50;2.38;;;1.10;;
65238;SDS011;51827;51.186;6.926;2023-03-31T01:14:51;1.80;;;0.90;;
65238;SDS011;51827;51.186;6.926;2023-03-31T01:16:53;3.25;;;1.30;;
65238;SDS011;51827;51.186;6.926;2023-03-31T01:17:53;2.17;;;1.00;;
65238;SDS011;51827;51.186;6.926;2023-03-31T01:18:54;2.38;;;1.10;;
65238;SDS011;51827;51.186;6.926;2023-03-31T01:25:11;1.90;;;1.00;;
65238;SDS011;51827;51.186;6.926;2023-03-31T01:27:43;2.95;;;1.00;;
65238;SDS011;51827;51.186;6.926;2023-03-31T01:32:22;5.10;;;1.17;;
65238;SDS011;51827;51.186;6.926;2023-03-31T01:34:27;1.95;;;1.10;;
65238;SDS011;51827;51.186;6.926;2023-03-31T01:35:57;3.65;;;1.10;;
65238;SDS011;51827;51.186;6.926;2023-03-31T01:46:53;1.67;;;0.90;;
65238;SDS011;51827;51.186;6.926;2023-03-31T01:48:11;2.75;;;1.20;;
65238;SDS011;51827;51.186;6.926;2023-03-31T01:49:18;2.70;;;1.10;;
65238;SDS011;51827;51.186;6.926;2023-03-31T01:50:25;2.45;;;0.93;;
65238;SDS011;51827;51.186;6.926;2023-03-31T01:51:31;2.97;;;1.15;;
65238;SDS011;51827;51.186;6.926;2023-03-31T01:56:29;4.82;;;1.00;;
65238;SDS011;51827;51.186;6.926;2023-03-31T01:57:34;2.20;;;0.98;;
65238;SDS011;51827;51.186;6.926;2023-03-31T01:58:39;1.88;;;0.90;;
65238;SDS011;51827;51.186;6.926;2023-03-31T02:02:34;4.88;;;1.48;;
65238;SDS011;51827;51.186;6.926;2023-03-31T02:03:38;3.65;;;1.17;;
65238;SDS011;51827;51.186;6.926;2023-03-31T02:04:49;1.63;;;1.10;;
65238;SDS011;51827;51.186;6.926;2023-03-31T02:05:56;2.83;;;1.10;;
65238;SDS011;51827;51.186;6.926;2023-03-31T02:07:03;2.00;;;1.10;;
65238;SDS011;51827;51.186;6.926;2023-03-31T02:08:10;2.13;;;1.10;;
65238;SDS011;51827;51.186;6.926;2023-03-31T02:09:16;2.78;;;1.10;;
65238;SDS011;51827;51.186;6.926;2023-03-31T02:10:21;2.72;;;1.08;;
65238;SDS011;51827;51.186;6.926;2023-03-31T02:11:24;2.28;;;0.90;;
65238;SDS011;51827;51.186;6.926;2023-03-31T02:12:27;4.70;;;1.30;;
65238;SDS011;51827;51.186;6.926;2023-03-31T02:13:30;4.45;;;1.23;;
65238;SDS011;51827;51.186;6.926;2023-03-31T02:14:33;1.83;;;1.00;;
65238;SDS011;51827;51.186;6.926;2023-03-31T02:15:37;1.95;;;0.90;;
65238;SDS011;51827;51.186;6.926;2023-03-31T02:16:40;2.80;;;1.00;;
65238;SDS011;51827;51.186;6.926;2023-03-31T02:17:43;2.50;;;1.20;;
65238;SDS011;51827;51.186;6.926;2023-03-31T02:18:48;1.77;;;1.00;;
65238;SDS011;51827;51.186;6.926;2023-03-31T02:19:52;1.88;;;0.90;;
65238;SDS011;51827;51.186;6.926;2023-03-31T02:20:53;2.63;;;1.20;;
65238;SDS011;51827;51.186;6.926;2023-03-31T02:21:54;2.83;;;1.20;;
65238;SDS011;51827;51.186;6.926;2023-03-31T02:22:55;2.33;;;1.25;;
65238;SDS011;51827;51.186;6.926;2023-03-31T02:24:59;2.45;;;1.10;;
65238;SDS011;51827;51.186;6.926;2023-03-31T02:26:02;2.22;;;1.10;;
65238;SDS011;51827;51.186;6.926;2023-03-31T02:28:09;1.83;;;0.93;;
65238;SDS011;51827;51.186;6.926;2023-03-31T02:29:13;2.47;;;1.08;;
65238;SDS011;51827;51.186;6.926;2023-03-31T02:30:14;2.87;;;1.00;;
65238;SDS011;51827;51.186;6.926;2023-03-31T02:33:27;2.47;;;1.08;;
65238;SDS011;51827;51.186;6.926;2023-03-31T02:34:27;2.47;;;1.10;;
65238;SDS011;51827;51.186;6.926;2023-03-31T02:35:28;1.93;;;0.97;;
65238;SDS011;51827;51.186;6.926;2023-03-31T02:36:28;2.47;;;1.10;;
65238;SDS011;51827;51.186;6.926;2023-03-31T02:38:31;2.77;;;1.10;;
65238;SDS011;51827;51.186;6.926;2023-03-31T02:39:45;3.25;;;1.10;;
65238;SDS011;51827;51.186;6.926;2023-03-31T02:40:47;3.25;;;1.20;;
65238;SDS011;51827;51.186;6.926;2023-03-31T02:41:48;4.00;;;1.20;;
65238;SDS011;51827;51.186;6.926;2023-03-31T02:42:48;3.30;;;1.27;;
65238;SDS011;51827;51.186;6.926;2023-03-31T02:43:49;3.95;;;1.30;;
65238;SDS011;51827;51.186;6.926;2023-03-31T02:44:49;1.47;;;0.90;;
65238;SDS011;51827;51.186;6.926;2023-03-31T02:45:49;2.53;;;1.10;;
65238;SDS011;51827;51.186;6.926;2023-03-31T02:46:50;1.63;;;0.90;;
65238;SDS011;51827;51.186;6.926;2023-03-31T02:47:50;2.55;;;1.02;;
65238;SDS011;51827;51.186;6.926;2023-03-31T02:48:52;2.60;;;1.00;;
65238;SDS011;51827;51.186;6.926;2023-03-31T02:49:57;2.97;;;1.20;;
65238;SDS011;51827;51.186;6.926;2023-03-31T02:55:23;2.85;;;0.93;;
65238;SDS011;51827;51.186;6.926;2023-03-31T03:02:11;2.15;;;0.90;;
65238;SDS011;51827;51.186;6.926;2023-03-31T03:06:26;2.40;;;1.30;;
65238;SDS011;51827;51.186;6.926;2023-03-31T03:11:12;3.50;;;1.10;;
65238;SDS011;51827;51.186;6.926;2023-03-31T03:12:27;3.70;;;1.27;;
65238;SDS011;51827;51.186;6.926;2023-03-31T03:16:11;2.25;;;1.00;;
65238;SDS011;51827;51.186;6.926;2023-03-31T03:18:24;2.17;;;1.00;;
65238;SDS011;51827;51.186;6.926;2023-03-31T03:19:24;3.00;;;1.23;;
65238;SDS011;51827;51.186;6.926;2023-03-31T03:20:25;3.50;;;1.30;;
65238;SDS011;51827;51.186;6.926;2023-03-31T03:21:25;5.17;;;1.40;;
65238;SDS011;51827;51.186;6.926;2023-03-31T03:23:27;3.22;;;1.15;;
65238;SDS011;51827;51.186;6.926;2023-03-31T03:24:27;3.63;;;1.10;;
65238;SDS011;51827;51.186;6.926;2023-03-31T03:25:27;3.43;;;1.20;;
65238;SDS011;51827;51.186;6.926;2023-03-31T03:26:27;1.80;;;0.90;;
65238;SDS011;51827;51.186;6.926;2023-03-31T03:27:28;2.37;;;1.00;;
65238;SDS011;51827;51.186;6.926;2023-03-31T03:28:28;2.43;;;1.03;;
65238;SDS011;51827;51.186;6.926;2023-03-31T03:29:28;3.67;;;1.10;;
65238;SDS011;51827;51.186;6.926;2023-03-31T03:30:28;2.97;;;1.20;;
65238;SDS011;51827;51.186;6.926;2023-03-31T03:31:29;2.63;;;1.00;;
65238;SDS011;51827;51.186;6.926;2023-03-31T03:32:29;1.53;;;1.00;;
65238;SDS011;51827;51.186;6.926;2023-03-31T03:33:30;2.38;;;1.00;;
65238;SDS011;51827;51.186;6.926;2023-03-31T03:34:30;2.70;;;1.33;;
65238;SDS011;51827;51.186;6.926;2023-03-31T03:35:33;1.73;;;0.90;;
65238;SDS011;51827;51.186;6.926;2023-03-31T03:36:34;6.38;;;1.38;;
65238;SDS011;51827;51.186;6.926;2023-03-31T03:37:35;3.55;;;1.30;;
65238;SDS011;51827;51.186;6.926;2023-03-31T03:38:36;3.85;;;1.50;;
65238;SDS011;51827;51.186;6.926;2023-03-31T03:39:36;3.43;;;1.10;;
65238;SDS011;51827;51.186;6.926;2023-03-31T03:40:36;3.97;;;1.27;;
65238;SDS011;51827;51.186;6.926;2023-03-31T03:41:36;3.33;;;1.30;;
65238;SDS011;51827;51.186;6.926;2023-03-31T03:42:37;4.15;;;1.10;;
65238;SDS011;51827;51.186;6.926;2023-03-31T03:43:37;3.47;;;1.10;;
65238;SDS011;51827;51.186;6.926;2023-03-31T03:44:37;2.50;;;1.40;;
65238;SDS011;51827;51.186;6.926;2023-03-31T03:45:38;3.20;;;1.07;;
65238;SDS011;51827;51.186;6.926;2023-03-31T03:46:38;3.37;;;1.33;;
65238;SDS011;51827;51.186;6.926;2023-03-31T03:47:38;2.70;;;1.23;;
65238;SDS011;51827;51.186;6.926;2023-03-31T03:48:38;2.13;;;1.10;;
65238;SDS011;51827;51.186;6.926;2023-03-31T03:49:38;3.57;;;1.30;;
65238;SDS011;51827;51.186;6.926;2023-03-31T03:50:39;2.73;;;1.30;;
65238;SDS011;51827;51.186;6.926;2023-03-31T03:51:39;3.30;;;1.20;;
65238;SDS011;51827;51.186;6.926;2023-03-31T03:52:39;3.07;;;1.20;;
65238;SDS011;51827;51.186;6.926;2023-03-31T03:53:39;2.00;;;1.13;;
65238;SDS011;51827;51.186;6.926;2023-03-31T03:54:40;2.93;;;1.20;;
65238;SDS011;51827;51.186;6.926;2023-03-31T03:55:40;2.63;;;1.10;;
65238;SDS011;51827;51.186;6.926;2023-03-31T03:56:40;2.83;;;1.10;;
65238;SDS011;51827;51.186;6.926;2023-03-31T03:57:41;2.60;;;1.17;;
65238;SDS011;51827;51.186;6.926;2023-03-31T03:58:41;3.07;;;1.10;;
65238;SDS011;51827;51.186;6.926;2023-03-31T03:59:41;2.63;;;1.33;;
65238;SDS011;51827;51.186;6.926;2023-03-31T04:00:42;3.00;;;1.27;;
65238;SDS011;51827;51.186;6.926;2023-03-31T04:01:42;4.13;;;1.30;;
65238;SDS011;51827;51.186;6.926;2023-03-31T04:02:42;3.03;;;1.10;;
65238;SDS011;51827;51.186;6.926;2023-03-31T04:03:43;1.70;;;1.00;;
65238;SDS011;51827;51.186;6.926;2023-03-31T04:04:43;2.88;;;1.10;;
65238;SDS011;51827;51.186;6.926;2023-03-31T04:05:44;4.63;;;1.40;;
65238;SDS011;51827;51.186;6.926;2023-03-31T04:06:46;2.55;;;1.10;;
65238;SDS011;51827;51.186;6.926;2023-03-31T04:07:46;2.67;;;1.07;;
65238;SDS011;51827;51.186;6.926;2023-03-31T04:08:46;4.10;;;1.27;;
65238;SDS011;51827;51.186;6.926;2023-03-31T04:09:47;1.83;;;0.97;;
65238;SDS011;51827;51.186;6.926;2023-03-31T04:10:47;5.73;;;1.23;;
65238;SDS011;51827;51.186;6.926;2023-03-31T04:11:48;2.80;;;1.00;;
65238;SDS011;51827;51.186;6.926;2023-03-31T04:12:48;3.13;;;1.20;;
65238;SDS011;51827;51.186;6.926;2023-03-31T04:13:49;2.30;;;1.10;;
65238;SDS011;51827;51.186;6.926;2023-03-31T04:14:49;3.23;;;1.20;;
65238;SDS011;51827;51.186;6.926;2023-03-31T04:15:49;2.70;;;1.00;;
65238;SDS011;51827;51.186;6.926;2023-03-31T04:16:49;3.90;;;1.30;;
65238;SDS011;51827;51.186;6.926;2023-03-31T04:17:50;2.90;;;1.10;;
65238;SDS011;51827;51.186;6.926;2023-03-31T04:18:51;1.87;;;0.87;;
65238;SDS011;51827;51.186;6.926;2023-03-31T04:19:52;4.45;;;1.10;;
65238;SDS011;51827;51.186;6.926;2023-03-31T04:20:52;2.97;;;1.10;;
65238;SDS011;51827;51.186;6.926;2023-03-31T04:21:53;4.95;;;1.35;;
65238;SDS011;51827;51.186;6.926;2023-03-31T04:22:53;2.92;;;1.45;;
65238;SDS011;51827;51.186;6.926;2023-03-31T04:23:53;2.23;;;1.20;;
65238;SDS011;51827;51.186;6.926;2023-03-31T04:24:54;2.80;;;1.20;;
65238;SDS011;51827;51.186;6.926;2023-03-31T04:25:54;2.83;;;1.10;;
65238;SDS011;51827;51.186;6.926;2023-03-31T04:26:55;3.27;;;1.13;;
65238;SDS011;51827;51.186;6.926;2023-03-31T04:27:56;3.35;;;1.10;;
65238;SDS011;51827;51.186;6.926;2023-03-31T04:28:56;2.45;;;1.10;;
65238;SDS011;51827;51.186;6.926;2023-03-31T04:29:57;2.85;;;1.10;;
65238;SDS011;51827;51.186;6.926;2023-03-31T04:30:57;3.60;;;1.10;;
65238;SDS011;51827;51.186;6.926;2023-03-31T04:31:57;3.73;;;1.10;;
65238;SDS011;51827;51.186;6.926;2023-03-31T04:33:00;3.13;;;1.17;;
65238;SDS011;51827;51.186;6.926;2023-03-31T04:34:01;2.28;;;1.30;;
65238;SDS011;51827;51.186;6.926;2023-03-31T04:35:01;5.90;;;1.30;;
65238;SDS011;51827;51.186;6.926;2023-03-31T04:36:01;3.03;;;1.13;;
65238;SDS011;51827;51.186;6.926;2023-03-31T04:37:02;5.93;;;1.10;;
65238;SDS011;51827;51.186;6.926;2023-03-31T04:38:02;3.97;;;1.20;;
65238;SDS011;51827;51.186;6.926;2023-03-31T04:39:03;2.63;;;1.13;;
65238;SDS011;51827;51.186;6.926;2023-03-31T04:40:03;3.00;;;1.17;;
65238;SDS011;51827;51.186;6.926;2023-03-31T04:41:04;3.63;;;1.00;;
65238;SDS011;51827;51.186;6.926;2023-03-31T04:42:04;2.47;;;1.17;;
65238;SDS011;51827;51.186;6.926;2023-03-31T04:43:04;1.80;;;1.00;;
65238;SDS011;51827;51.186;6.926;2023-03-31T04:44:04;2.70;;;1.20;;
65238;SDS011;51827;51.186;6.926;2023-03-31T04:45:05;2.07;;;1.17;;
65238;SDS011;51827;51.186;6.926;2023-03-31T04:46:05;2.90;;;1.17;;
65238;SDS011;51827;51.186;6.926;2023-03-31T04:47:06;2.50;;;1.58;;
65238;SDS011;51827;51.186;6.926;2023-03-31T04:48:06;4.43;;;1.53;;
65238;SDS011;51827;51.186;6.926;2023-03-31T04:49:07;3.13;;;1.17;;
65238;SDS011;51827;51.186;6.926;2023-03-31T04:50:07;3.10;;;1.03;;
65238;SDS011;51827;51.186;6.926;2023-03-31T04:52:08;3.78;;;1.27;;
65238;SDS011;51827;51.186;6.926;2023-03-31T04:53:09;1.80;;;1.00;;
65238;SDS011;51827;51.186;6.926;2023-03-31T04:54:09;3.43;;;1.77;;
65238;SDS011;51827;51.186;6.926;2023-03-31T04:55:10;7.30;;;2.58;;
65238;SDS011;51827;51.186;6.926;2023-03-31T04:56:11;8.43;;;2.70;;
65238;SDS011;51827;51.186;6.926;2023-03-31T04:57:11;14.30;;;2.97;;
65238;SDS011;51827;51.186;6.926;2023-03-31T04:58:12;9.10;;;3.10;;
65238;SDS011;51827;51.186;6.926;2023-03-31T04:59:12;7.97;;;3.03;;
65238;SDS011;51827;51.186;6.926;2023-03-31T05:00:13;5.40;;;2.70;;
65238;SDS011;51827;51.186;6.926;2023-03-31T05:01:13;7.28;;;2.75;;
65238;SDS011;51827;51.186;6.926;2023-03-31T05:02:14;6.38;;;2.95;;
65238;SDS011;51827;51.186;6.926;2023-03-31T05:03:14;7.67;;;2.80;;
65238;SDS011;51827;51.186;6.926;2023-03-31T05:04:14;7.37;;;2.23;;
65238;SDS011;51827;51.186;6.926;2023-03-31T05:05:14;6.97;;;2.40;;
65238;SDS011;51827;51.186;6.926;2023-03-31T05:06:15;6.90;;;2.40;;
65238;SDS011;51827;51.186;6.926;2023-03-31T05:07:16;8.55;;;2.20;;
65238;SDS011;51827;51.186;6.926;2023-03-31T05:08:17;12.75;;;2.58;;
65238;SDS011;51827;51.186;6.926;2023-03-31T05:09:17;14.00;;;3.03;;
65238;SDS011;51827;51.186;6.926;2023-03-31T05:10:18;8.97;;;2.23;;
65238;SDS011;51827;51.186;6.926;2023-03-31T05:11:18;11.57;;;2.53;;
65238;SDS011;51827;51.186;6.926;2023-03-31T05:12:18;8.73;;;2.70;;
65238;SDS011;51827;51.186;6.926;2023-03-31T05:13:18;7.37;;;2.30;;
65238;SDS011;51827;51.186;6.926;2023-03-31T05:14:19;8.07;;;2.17;;
65238;SDS011;51827;51.186;6.926;2023-03-31T05:15:19;10.93;;;2.23;;
65238;SDS011;51827;51.186;6.926;2023-03-31T05:16:19;7.63;;;2.30;;
65238;SDS011;51827;51.186;6.926;2023-03-31T05:17:19;9.53;;;1.90;;
65238;SDS011;51827;51.186;6.926;2023-03-31T05:18:20;10.63;;;2.60;;
65238;SDS011;51827;51.186;6.926;2023-03-31T05:19:20;8.47;;;1.90;;
65238;SDS011;51827;51.186;6.926;2023-03-31T05:20:20;7.60;;;2.17;;
65238;SDS011;51827;51.186;6.926;2023-03-31T05:21:20;8.37;;;1.93;;
65238;SDS011;51827;51.186;6.926;2023-03-31T05:22:21;6.63;;;2.00;;
65238;SDS011;51827;51.186;6.926;2023-03-31T05:23:21;11.10;;;2.80;;
65238;SDS011;51827;51.186;6.926;2023-03-31T05:24:22;7.73;;;2.13;;
65238;SDS011;51827;51.186;6.926;2023-03-31T05:25:22;7.07;;;2.27;;
65238;SDS011;51827;51.186;6.926;2023-03-31T05:26:23;5.77;;;1.90;;
65238;SDS011;51827;51.186;6.926;2023-03-31T05:27:24;13.82;;;2.35;;
65238;SDS011;51827;51.186;6.926;2023-03-31T05:28:24;9.90;;;2.10;;
65238;SDS011;51827;51.186;6.926;2023-03-31T05:29:24;7.33;;;1.87;;
65238;SDS011;51827;51.186;6.926;2023-03-31T05:30:25;5.57;;;1.70;;
65238;SDS011;51827;51.186;6.926;2023-03-31T05:31:25;7.93;;;2.00;;
65238;SDS011;51827;51.186;6.926;2023-03-31T05:32:25;6.60;;;2.43;;
65238;SDS011;51827;51.186;6.926;2023-03-31T05:33:26;7.35;;;2.17;;
65238;SDS011;51827;51.186;6.926;2023-03-31T05:34:27;7.28;;;2.50;;
65238;SDS011;51827;51.186;6.926;2023-03-31T05:35:27;6.55;;;1.70;;
65238;SDS011;51827;51.186;6.926;2023-03-31T05:36:27;7.50;;;1.80;;
65238;SDS011;51827;51.186;6.926;2023-03-31T05:37:28;6.73;;;1.87;;
65238;SDS011;51827;51.186;6.926;2023-03-31T05:38:28;5.10;;;1.70;;
65238;SDS011;51827;51.186;6.926;2023-03-31T05:39:28;6.47;;;1.90;;
65238;SDS011;51827;51.186;6.926;2023-03-31T05:40:28;5.60;;;1.63;;
65238;SDS011;51827;51.186;6.926;2023-03-31T05:41:29;6.23;;;1.50;;
65238;SDS011;51827;51.186;6.926;2023-03-31T05:42:29;3.87;;;1.50;;
65238;SDS011;51827;51.186;6.926;2023-03-31T05:43:29;6.95;;;1.88;;
65238;SDS011;51827;51.186;6.926;2023-03-31T05:44:30;6.83;;;1.60;;
65238;SDS011;51827;51.186;6.926;2023-03-31T05:45:30;5.80;;;1.63;;
65238;SDS011;51827;51.186;6.926;2023-03-31T05:46:31;3.40;;;1.67;;
65238;SDS011;51827;51.186;6.926;2023-03-31T05:47:31;6.90;;;2.00;;
65238;SDS011;51827;51.186;6.926;2023-03-31T05:48:31;8.57;;;2.10;;
65238;SDS011;51827;51.186;6.926;2023-03-31T05:49:31;9.00;;;1.83;;
65238;SDS011;51827;51.186;6.926;2023-03-31T05:50:32;6.70;;;1.80;;
65238;SDS011;51827;51.186;6.926;2023-03-31T05:51:32;4.60;;;1.50;;
65238;SDS011;51827;51.186;6.926;2023-03-31T05:52:33;5.60;;;1.70;;
65238;SDS011;51827;51.186;6.926;2023-03-31T05:53:34;3.75;;;1.40;;
65238;SDS011;51827;51.186;6.926;2023-03-31T05:54:34;3.93;;;1.63;;
65238;SDS011;51827;51.186;6.926;2023-03-31T05:55:35;6.18;;;1.67;;
65238;SDS011;51827;51.186;6.926;2023-03-31T05:56:35;4.70;;;1.70;;
65238;SDS011;51827;51.186;6.926;2023-03-31T05:57:35;7.73;;;1.47;;
65238;SDS011;51827;51.186;6.926;2023-03-31T05:58:36;7.40;;;1.50;;
65238;SDS011;51827;51.186;6.926;2023-03-31T05:59:37;5.55;;;1.50;;
65238;SDS011;51827;51.186;6.926;2023-03-31T06:00:37;4.10;;;1.43;;
65238;SDS011;51827;51.186;6.926;2023-03-31T06:01:37;5.47;;;1.77;;
65238;SDS011;51827;51.186;6.926;2023-03-31T06:02:37;4.20;;;1.50;;
65238;SDS011;51827;51.186;6.926;2023-03-31T06:03:38;7.73;;;1.93;;
65238;SDS011;51827;51.186;6.926;2023-03-31T06:04:40;4.57;;;1.52;;
65238;SDS011;51827;51.186;6.926;2023-03-31T06:05:45;4.60;;;1.60;;
65238;SDS011;51827;51.186;6.926;2023-03-31T06:06:46;4.03;;;1.20;;
65238;SDS011;51827;51.186;6.926;2023-03-31T06:07:47;3.83;;;1.33;;
65238;SDS011;51827;51.186;6.926;2023-03-31T06:08:47;5.22;;;1.80;;
65238;SDS011;51827;51.186;6.926;2023-03-31T06:09:48;4.05;;;1.40;;
65238;SDS011;51827;51.186;6.926;2023-03-31T06:10:48;5.20;;;1.47;;
65238;SDS011;51827;51.186;6.926;2023-03-31T06:11:49;6.25;;;1.60;;
65238;SDS011;51827;51.186;6.926;2023-03-31T06:12:49;3.40;;;1.40;;
65238;SDS011;51827;51.186;6.926;2023-03-31T06:13:50;6.20;;;1.70;;
65238;SDS011;51827;51.186;6.926;2023-03-31T06:14:50;5.30;;;1.67;;
65238;SDS011;51827;51.186;6.926;2023-03-31T06:15:57;3.73;;;1.60;;
65238;SDS011;51827;51.186;6.926;2023-03-31T06:16:58;7.00;;;1.42;;
65238;SDS011;51827;51.186;6.926;2023-03-31T06:17:58;7.30;;;1.63;;
65238;SDS011;51827;51.186;6.926;2023-03-31T06:18:59;6.47;;;1.47;;
65238;SDS011;51827;51.186;6.926;2023-03-31T06:19:59;6.17;;;1.47;;
65238;SDS011;51827;51.186;6.926;2023-03-31T06:20:59;3.20;;;1.23;;
65238;SDS011;51827;51.186;6.926;2023-03-31T06:23:01;4.00;;;1.33;;
65238;SDS011;51827;51.186;6.926;2023-03-31T06:24:01;4.07;;;1.47;;
65238;SDS011;51827;51.186;6.926;2023-03-31T06:25:01;4.87;;;1.53;;
65238;SDS011;51827;51.186;6.926;2023-03-31T06:26:03;3.03;;;1.13;;
65238;SDS011;51827;51.186;6.926;2023-03-31T06:27:05;4.00;;;1.13;;
65238;SDS011;51827;51.186;6.926;2023-03-31T06:28:06;5.05;;;1.70;;
65238;SDS011;51827;51.186;6.926;2023-03-31T06:29:06;4.23;;;1.37;;
65238;SDS011;51827;51.186;6.926;2023-03-31T06:30:06;3.77;;;1.37;;
65238;SDS011;51827;51.186;6.926;2023-03-31T06:31:08;6.13;;;1.63;;
65238;SDS011;51827;51.186;6.926;2023-03-31T06:32:10;4.40;;;1.40;;
65238;SDS011;51827;51.186;6.926;2023-03-31T06:33:10;3.77;;;1.43;;
65238;SDS011;51827;51.186;6.926;2023-03-31T06:34:11;3.58;;;1.30;;
65238;SDS011;51827;51.186;6.926;2023-03-31T06:35:11;3.13;;;1.40;;
65238;SDS011;51827;51.186;6.926;2023-03-31T06:36:12;3.23;;;1.13;;
65238;SDS011;51827;51.186;6.926;2023-03-31T06:37:14;3.55;;;1.30;;
65238;SDS011;51827;51.186;6.926;2023-03-31T06:38:14;2.23;;;1.10;;
65238;SDS011;51827;51.186;6.926;2023-03-31T06:39:14;2.17;;;1.20;;
65238;SDS011;51827;51.186;6.926;2023-03-31T06:40:15;3.00;;;1.23;;
65238;SDS011;51827;51.186;6.926;2023-03-31T06:41:16;3.13;;;1.43;;
65238;SDS011;51827;51.186;6.926;2023-03-31T06:43:17;5.27;;;1.20;;
65238;SDS011;51827;51.186;6.926;2023-03-31T06:44:17;4.87;;;1.37;;
65238;SDS011;51827;51.186;6.926;2023-03-31T06:45:17;5.40;;;1.20;;
65238;SDS011;51827;51.186;6.926;2023-03-31T06:46:17;3.20;;;1.27;;
65238;SDS011;51827;51.186;6.926;2023-03-31T06:47:17;3.93;;;1.40;;
65238;SDS011;51827;51.186;6.926;2023-03-31T06:48:18;6.23;;;1.43;;
65238;SDS011;51827;51.186;6.926;2023-03-31T06:49:18;3.75;;;1.20;;
65238;SDS011;51827;51.186;6.926;2023-03-31T06:50:18;3.83;;;1.53;;
65238;SDS011;51827;51.186;6.926;2023-03-31T06:51:19;3.47;;;1.30;;
65238;SDS011;51827;51.186;6.926;2023-03-31T06:52:19;5.70;;;1.30;;
65238;SDS011;51827;51.186;6.926;2023-03-31T06:53:20;5.00;;;1.20;;
65238;SDS011;51827;51.186;6.926;2023-03-31T06:54:20;2.50;;;1.30;;
65238;SDS011;51827;51.186;6.926;2023-03-31T06:55:20;3.47;;;1.10;;
65238;SDS011;51827;51.186;6.926;2023-03-31T06:56:21;2.53;;;1.40;;
65238;SDS011;51827;51.186;6.926;2023-03-31T06:57:21;4.90;;;1.30;;
65238;SDS011;51827;51.186;6.926;2023-03-31T06:58:21;2.87;;;1.30;;
65238;SDS011;51827;51.186;6.926;2023-03-31T06:59:22;5.30;;;1.20;;
65238;SDS011;51827;51.186;6.926;2023-03-31T07:00:22;4.20;;;1.30;;
65238;SDS011;51827;51.186;6.926;2023-03-31T07:01:22;3.17;;;1.23;;
65238;SDS011;51827;51.186;6.926;2023-03-31T07:02:22;5.47;;;1.50;;
65238;SDS011;51827;51.186;6.926;2023-03-31T07:03:23;5.73;;;1.40;;
65238;SDS011;51827;51.186;6.926;2023-03-31T07:04:23;3.57;;;1.30;;
65238;SDS011;51827;51.186;6.926;2023-03-31T07:05:23;4.53;;;1.27;;
65238;SDS011;51827;51.186;6.926;2023-03-31T07:06:24;4.30;;;1.27;;
65238;SDS011;51827;51.186;6.926;2023-03-31T07:07:24;2.73;;;1.20;;
65238;SDS011;51827;51.186;6.926;2023-03-31T07:08:24;2.63;;;1.13;;
65238;SDS011;51827;51.186;6.926;2023-03-31T07:09:25;2.37;;;1.10;;
65238;SDS011;51827;51.186;6.926;2023-03-31T07:10:26;3.07;;;1.20;;
65238;SDS011;51827;51.186;6.926;2023-03-31T07:11:28;2.95;;;1.40;;
65238;SDS011;51827;51.186;6.926;2023-03-31T07:12:31;4.60;;;1.45;;
65238;SDS011;51827;51.186;6.926;2023-03-31T07:13:32;5.35;;;1.15;;
65238;SDS011;51827;51.186;6.926;2023-03-31T07:14:32;3.50;;;1.37;;